Time;durP1;ratioP1;P1;durP2;ratioP2;P2;SDS_P1;SDS_P2;PMS_P1;PMS_P2;Temp;Humidity;BMP_temperature;BMP_pressure;BME280_temperature;BME280_humidity;BME280_pressure;Samples;Min_cycle;Max_cycle;Signal;HPM_P1;HPM_P2
2023/12/06 00:00:17;;;;;;;80.93;43.50;;;1.00;99.90;;;;;;5054678;28;20032;-70
2023/12/06 00:02:43;;;;;;;77.20;41.83;;;1.00;99.90;;;;;;5054337;28;20053;-70
2023/12/06 00:05:10;;;;;;;77.90;42.78;;;1.00;99.90;;;;;;5054819;28;20025;-70
2023/12/06 00:07:37;;;;;;;73.28;42.42;;;1.00;99.90;;;;;;5054106;28;20029;-70
2023/12/06 00:10:03;;;;;;;71.43;40.42;;;1.00;99.90;;;;;;5054730;28;20033;-70
2023/12/06 00:12:28;;;;;;;77.90;43.33;;;1.00;99.90;;;;;;5054691;28;20029;-69
2023/12/06 00:14:54;;;;;;;78.50;43.85;;;1.00;99.90;;;;;;5053698;28;20456;-70
2023/12/06 00:17:19;;;;;;;70.93;42.45;;;1.00;99.90;;;;;;5054772;28;20052;-70
2023/12/06 00:19:45;;;;;;;73.72;43.72;;;1.00;99.90;;;;;;5053958;28;20033;-70
2023/12/06 00:22:11;;;;;;;70.53;40.88;;;1.00;99.90;;;;;;5053451;28;20032;-69
2023/12/06 00:24:37;;;;;;;73.80;42.00;;;1.00;99.90;;;;;;5054326;28;20048;-69
2023/12/06 00:27:03;;;;;;;73.78;42.33;;;1.10;99.90;;;;;;5054487;28;20021;-69
2023/12/06 00:29:29;;;;;;;75.40;41.90;;;1.00;99.90;;;;;;5053076;28;20110;-70
2023/12/06 00:31:55;;;;;;;69.57;40.80;;;1.10;99.90;;;;;;5054194;28;20029;-69
2023/12/06 00:34:21;;;;;;;75.47;41.75;;;1.10;99.90;;;;;;5054491;28;20029;-69
2023/12/06 00:36:48;;;;;;;76.38;43.47;;;1.10;99.90;;;;;;5053879;28;20381;-70
2023/12/06 00:39:14;;;;;;;76.35;42.15;;;1.00;99.90;;;;;;5053806;28;20036;-69
2023/12/06 00:41:40;;;;;;;74.10;42.17;;;1.00;99.90;;;;;;5053483;28;20037;-70
2023/12/06 00:44:07;;;;;;;77.47;43.15;;;1.00;99.90;;;;;;5054051;28;20151;-69
2023/12/06 00:46:33;;;;;;;71.50;41.58;;;1.00;99.90;;;;;;5054164;28;20072;-69
2023/12/06 00:48:59;;;;;;;73.35;41.45;;;1.10;99.90;;;;;;5053595;28;20075;-70
2023/12/06 00:51:25;;;;;;;73.43;41.50;;;1.10;99.90;;;;;;5054001;28;20090;-70
2023/12/06 00:53:51;;;;;;;68.65;42.25;;;1.00;99.90;;;;;;5053585;28;20466;-69
2023/12/06 00:56:16;;;;;;;73.28;41.70;;;1.00;99.90;;;;;;5052734;28;20029;-69
2023/12/06 00:58:43;;;;;;;76.05;42.67;;;1.00;99.90;;;;;;5053191;28;20036;-69
2023/12/06 01:01:11;;;;;;;76.40;43.78;;;1.00;99.90;;;;;;5053763;28;20045;-69
2023/12/06 01:03:37;;;;;;;76.82;42.15;;;1.00;99.90;;;;;;5053817;28;20119;-70
2023/12/06 01:06:03;;;;;;;74.32;40.75;;;1.00;99.90;;;;;;5054380;28;20036;-71
2023/12/06 01:08:29;;;;;;;77.63;40.83;;;1.00;99.90;;;;;;5053419;28;20025;-69
2023/12/06 01:10:54;;;;;;;72.65;41.00;;;1.00;99.90;;;;;;5053271;28;20029;-70
2023/12/06 01:13:20;;;;;;;71.68;41.30;;;1.00;99.90;;;;;;5053734;28;20104;-69
2023/12/06 01:15:46;;;;;;;75.63;41.85;;;1.00;99.90;;;;;;5053080;28;20457;-71
2023/12/06 01:18:12;;;;;;;70.43;41.20;;;1.00;99.90;;;;;;5053282;28;20422;-69
2023/12/06 01:20:38;;;;;;;68.35;39.63;;;1.00;99.90;;;;;;5053295;28;20039;-70
2023/12/06 01:23:04;;;;;;;69.25;40.83;;;1.00;99.90;;;;;;5053084;28;20119;-69
2023/12/06 01:25:30;;;;;;;70.47;39.45;;;1.00;99.90;;;;;;5053182;28;20021;-70
2023/12/06 01:27:56;;;;;;;72.93;40.50;;;0.90;99.90;;;;;;5052169;28;20070;-69
2023/12/06 01:30:22;;;;;;;66.78;39.72;;;0.90;99.90;;;;;;5053172;28;20029;-69
2023/12/06 01:32:47;;;;;;;73.40;41.10;;;0.90;99.90;;;;;;5052840;28;20036;-69
2023/12/06 01:35:13;;;;;;;69.70;41.17;;;0.90;99.90;;;;;;5053314;28;20489;-69
2023/12/06 01:37:39;;;;;;;70.80;40.05;;;0.90;99.90;;;;;;5053505;28;20056;-68
2023/12/06 01:40:06;;;;;;;72.63;40.50;;;0.90;99.90;;;;;;5053416;28;20057;-68
2023/12/06 01:42:32;;;;;;;70.93;39.75;;;0.90;99.90;;;;;;5053135;28;20033;-70
2023/12/06 01:44:58;;;;;;;67.47;40.60;;;0.90;99.90;;;;;;5052710;28;20084;-69
2023/12/06 01:47:25;;;;;;;75.40;41.05;;;0.90;99.90;;;;;;5053183;28;20120;-69
2023/12/06 01:49:52;;;;;;;72.03;40.38;;;0.90;99.90;;;;;;5051414;28;20025;-69
2023/12/06 01:52:18;;;;;;;73.38;40.55;;;0.90;99.90;;;;;;5052782;28;20033;-69
2023/12/06 01:54:43;;;;;;;70.63;41.25;;;0.90;99.90;;;;;;5052676;28;20393;-68
2023/12/06 01:57:10;;;;;;;71.82;38.85;;;0.90;99.90;;;;;;5052544;28;20074;-69
2023/12/06 01:59:38;;;;;;;73.72;42.22;;;0.90;99.90;;;;;;5052584;28;20037;-69
2023/12/06 02:02:04;;;;;;;77.68;41.08;;;0.90;99.90;;;;;;5052007;28;20063;-69
2023/12/06 02:04:32;;;;;;;70.57;39.70;;;0.80;99.90;;;;;;5052549;28;20028;-70
2023/12/06 02:06:57;;;;;;;71.82;39.05;;;0.80;99.90;;;;;;5052536;28;20112;-69
2023/12/06 02:09:23;;;;;;;72.63;40.28;;;0.80;99.90;;;;;;5052606;28;20096;-70
2023/12/06 02:11:49;;;;;;;71.22;41.72;;;0.80;99.90;;;;;;5051850;28;20040;-70
2023/12/06 02:14:15;;;;;;;68.72;40.88;;;0.80;99.90;;;;;;5052831;28;20132;-70
2023/12/06 02:16:41;;;;;;;70.95;39.85;;;0.80;99.90;;;;;;5051512;28;20031;-69
2023/12/06 02:19:14;;;;;;;74.80;40.65;;;0.80;99.90;;;;;;5052202;28;20078;-70
2023/12/06 02:21:40;;;;;;;72.80;42.10;;;0.80;99.90;;;;;;5052236;28;20029;-70
2023/12/06 02:24:06;;;;;;;71.18;40.88;;;0.80;99.90;;;;;;5052123;28;20029;-70
2023/12/06 02:26:31;;;;;;;72.70;41.63;;;0.80;99.90;;;;;;5052563;28;20518;-70
2023/12/06 02:28:57;;;;;;;72.75;41.25;;;0.90;99.90;;;;;;5052183;28;20524;-70
2023/12/06 02:31:22;;;;;;;71.22;41.13;;;0.80;99.90;;;;;;5052436;28;20028;-71
2023/12/06 02:33:51;;;;;;;73.00;41.92;;;0.80;99.90;;;;;;5052109;28;20025;-70
2023/12/06 02:36:19;;;;;;;71.15;42.15;;;0.90;99.90;;;;;;5052430;28;20454;-70
2023/12/06 02:38:46;;;;;;;69.72;40.42;;;0.80;99.90;;;;;;5054381;28;20025;-73
2023/12/06 02:41:13;;;;;;;71.70;39.60;;;0.80;99.90;;;;;;5055747;28;20029;-70
2023/12/06 02:43:39;;;;;;;70.68;41.88;;;0.80;99.90;;;;;;5056385;28;20028;-70
2023/12/06 02:46:06;;;;;;;72.00;40.63;;;0.80;99.90;;;;;;5055962;28;20036;-70
2023/12/06 02:48:33;;;;;;;66.88;38.65;;;0.90;99.90;;;;;;5056360;28;20078;-69
2023/12/06 02:50:58;;;;;;;63.97;38.17;;;0.90;99.90;;;;;;5055813;28;20025;-70
2023/12/06 02:53:24;;;;;;;69.88;39.80;;;0.80;99.90;;;;;;5056190;28;20029;-70
2023/12/06 02:55:49;;;;;;;72.68;40.25;;;0.90;99.90;;;;;;5055499;28;20025;-70
2023/12/06 02:58:15;;;;;;;71.05;41.28;;;0.80;99.90;;;;;;5056130;28;20025;-70
2023/12/06 03:00:40;;;;;;;78.20;42.65;;;0.90;99.90;;;;;;5055740;28;20036;-71
2023/12/06 03:03:06;;;;;;;77.18;43.85;;;0.90;99.90;;;;;;5055420;28;20477;-69
2023/12/06 03:05:31;;;;;;;71.97;41.63;;;0.90;99.90;;;;;;5055713;28;20025;-70
2023/12/06 03:07:57;;;;;;;76.28;41.80;;;0.90;99.90;;;;;;5055412;28;20466;-70
2023/12/06 03:10:23;;;;;;;71.97;42.53;;;0.80;99.90;;;;;;5055936;28;20053;-69
2023/12/06 03:12:48;;;;;;;74.80;43.38;;;0.90;99.90;;;;;;5055328;28;20036;-70
2023/12/06 03:15:14;;;;;;;71.13;41.13;;;0.90;99.90;;;;;;5055934;28;20025;-70
2023/12/06 03:17:39;;;;;;;76.13;42.28;;;0.80;99.90;;;;;;5055892;28;20048;-70
2023/12/06 03:20:08;;;;;;;74.18;42.60;;;0.80;99.90;;;;;;5054973;28;20035;-70
2023/12/06 03:22:34;;;;;;;72.82;41.30;;;0.80;99.90;;;;;;5055760;28;20033;-69
2023/12/06 03:25:00;;;;;;;72.63;43.78;;;0.80;99.90;;;;;;5054956;28;20039;-70
2023/12/06 03:27:25;;;;;;;77.85;41.97;;;0.80;99.90;;;;;;5055564;28;20032;-69
2023/12/06 03:29:51;;;;;;;72.88;43.75;;;0.80;99.90;;;;;;5055215;28;20048;-69
2023/12/06 03:32:16;;;;;;;73.78;41.58;;;0.80;99.90;;;;;;5054328;28;20028;-68
2023/12/06 03:34:42;;;;;;;72.30;43.00;;;0.80;99.90;;;;;;5054216;28;20052;-69
2023/12/06 03:37:08;;;;;;;72.30;40.97;;;0.90;99.90;;;;;;5054965;28;20047;-68
2023/12/06 03:39:33;;;;;;;72.13;41.60;;;0.80;99.90;;;;;;5055320;28;20025;-69
2023/12/06 03:41:59;;;;;;;71.80;41.60;;;0.80;99.90;;;;;;5054875;28;20500;-72
2023/12/06 03:44:25;;;;;;;73.07;42.10;;;0.90;99.90;;;;;;5055479;28;20122;-68
2023/12/06 03:46:51;;;;;;;68.65;40.63;;;0.80;99.90;;;;;;5054622;28;20520;-70
2023/12/06 03:49:16;;;;;;;70.57;40.97;;;0.80;99.90;;;;;;5054213;28;20048;-70
2023/12/06 03:51:42;;;;;;;75.35;43.90;;;0.80;99.90;;;;;;5057098;28;20032;-70
2023/12/06 03:54:08;;;;;;;68.85;39.72;;;0.80;99.90;;;;;;5057637;28;20065;-68
2023/12/06 03:56:33;;;;;;;70.78;41.88;;;0.80;99.90;;;;;;5056335;28;20029;-70
2023/12/06 03:58:59;;;;;;;66.28;39.95;;;0.80;99.90;;;;;;5054797;28;20060;-71
2023/12/06 04:01:25;;;;;;;70.95;39.45;;;0.80;99.90;;;;;;5055311;28;20052;-68
2023/12/06 04:03:50;;;;;;;69.13;39.90;;;0.80;99.90;;;;;;5055870;28;20124;-70
2023/12/06 04:06:16;;;;;;;65.68;42.17;;;0.80;99.90;;;;;;5056237;28;20025;-70
2023/12/06 04:08:42;;;;;;;73.07;40.53;;;0.80;99.90;;;;;;5058394;28;20025;-70
2023/12/06 04:11:07;;;;;;;72.22;42.08;;;0.80;99.90;;;;;;5055683;28;20033;-70
2023/12/06 04:13:33;;;;;;;70.82;42.78;;;0.80;99.90;;;;;;5053678;28;20564;-69
2023/12/06 04:15:58;;;;;;;73.88;43.45;;;0.80;99.90;;;;;;5054077;28;20485;-70
2023/12/06 04:18:24;;;;;;;77.10;43.72;;;0.80;99.90;;;;;;5054785;28;20020;-70
2023/12/06 04:20:50;;;;;;;77.15;44.40;;;0.80;99.90;;;;;;5053638;28;20485;-69
2023/12/06 04:23:15;;;;;;;77.20;42.13;;;0.80;99.90;;;;;;5052982;28;20039;-70
2023/12/06 04:25:41;;;;;;;67.28;41.08;;;0.80;99.90;;;;;;5054610;28;20036;-69
2023/12/06 04:28:07;;;;;;;68.55;40.65;;;0.80;99.90;;;;;;5052886;28;20032;-69
2023/12/06 04:30:32;;;;;;;70.30;41.92;;;0.80;99.90;;;;;;5054338;28;20482;-69
2023/12/06 04:32:58;;;;;;;73.82;42.30;;;0.80;99.90;;;;;;5053799;28;20025;-71
2023/12/06 04:35:24;;;;;;;70.93;42.90;;;0.80;99.90;;;;;;5054597;28;20116;-70
2023/12/06 04:37:49;;;;;;;72.90;43.20;;;0.80;99.90;;;;;;5053185;28;20029;-69
2023/12/06 04:40:15;;;;;;;75.32;44.03;;;0.80;99.90;;;;;;5053802;28;20024;-70
2023/12/06 04:42:40;;;;;;;76.35;43.15;;;0.80;99.90;;;;;;5052874;28;20038;-70
2023/12/06 04:45:06;;;;;;;71.50;41.08;;;0.80;99.90;;;;;;5053726;28;20025;-70
2023/12/06 04:47:32;;;;;;;76.10;42.92;;;0.80;99.90;;;;;;5053519;28;20029;-69
2023/12/06 04:49:58;;;;;;;72.90;42.97;;;0.80;99.90;;;;;;5053778;28;20029;-70
2023/12/06 04:52:24;;;;;;;69.00;41.05;;;0.80;99.90;;;;;;5053916;28;20036;-69
2023/12/06 04:54:50;;;;;;;74.22;43.03;;;0.80;99.90;;;;;;5053987;28;20025;-70
2023/12/06 04:57:15;;;;;;;74.00;42.75;;;0.80;99.90;;;;;;5053515;28;20064;-69
2023/12/06 04:59:41;;;;;;;76.85;43.47;;;0.80;99.90;;;;;;5053814;28;20029;-70
2023/12/06 05:02:07;;;;;;;76.78;44.28;;;0.80;99.90;;;;;;5053267;28;20407;-70
2023/12/06 05:04:33;;;;;;;83.15;45.35;;;0.80;99.90;;;;;;5053759;28;20024;-69
2023/12/06 05:06:58;;;;;;;75.75;42.83;;;0.80;99.90;;;;;;5053013;28;20028;-70
2023/12/06 05:09:24;;;;;;;79.25;42.80;;;0.80;99.90;;;;;;5053585;28;20021;-70
2023/12/06 05:11:50;;;;;;;78.82;43.60;;;0.80;99.90;;;;;;5053533;28;20029;-69
2023/12/06 05:14:15;;;;;;;74.05;43.20;;;0.80;99.90;;;;;;5053076;28;20057;-69
2023/12/06 05:16:41;;;;;;;79.63;44.38;;;0.80;99.90;;;;;;5053663;28;20528;-70
2023/12/06 05:19:06;;;;;;;75.85;43.60;;;0.80;99.90;;;;;;5052999;28;20029;-69
2023/12/06 05:21:32;;;;;;;75.15;42.47;;;0.80;99.90;;;;;;5053432;28;20037;-71
2023/12/06 05:23:58;;;;;;;73.82;43.30;;;0.80;99.90;;;;;;5052975;28;20040;-71
2023/12/06 05:26:26;;;;;;;79.97;45.00;;;0.80;99.90;;;;;;5053542;28;20457;-70
2023/12/06 05:28:52;;;;;;;77.65;43.00;;;0.80;99.90;;;;;;5053238;28;20029;-70
2023/12/06 05:31:18;;;;;;;78.28;43.47;;;0.80;99.90;;;;;;5053004;28;20040;-70
2023/12/06 05:33:44;;;;;;;73.53;43.97;;;0.80;99.90;;;;;;5052964;28;20037;-70
2023/12/06 05:36:10;;;;;;;77.90;43.45;;;0.80;99.90;;;;;;5052744;28;20056;-72
2023/12/06 05:38:35;;;;;;;77.00;43.70;;;0.80;99.90;;;;;;5053202;28;20107;-69
2023/12/06 05:41:01;;;;;;;77.05;42.83;;;0.80;99.90;;;;;;5051492;28;20032;-69
2023/12/06 05:43:26;;;;;;;78.28;45.78;;;0.90;99.90;;;;;;5052933;28;20033;-70
2023/12/06 05:45:52;;;;;;;83.95;44.25;;;0.80;99.90;;;;;;5052715;28;20025;-68
2023/12/06 05:48:18;;;;;;;86.50;44.75;;;0.90;99.90;;;;;;5052600;28;20029;-70
2023/12/06 05:50:43;;;;;;;81.53;46.72;;;0.80;99.90;;;;;;5052606;28;20037;-69
2023/12/06 05:53:09;;;;;;;83.55;46.17;;;0.90;99.90;;;;;;5052475;28;20441;-70
2023/12/06 05:55:34;;;;;;;79.75;45.53;;;0.90;99.90;;;;;;5052709;28;20060;-70
2023/12/06 05:58:00;;;;;;;76.38;44.40;;;0.90;99.90;;;;;;5051267;28;20071;-70
2023/12/06 06:00:26;;;;;;;81.82;46.50;;;0.90;99.90;;;;;;5052249;28;20025;-69
2023/12/06 06:02:56;;;;;;;77.88;45.72;;;0.80;99.90;;;;;;5052886;28;20056;-69
2023/12/06 06:05:22;;;;;;;87.95;46.90;;;0.80;99.90;;;;;;5051932;28;20079;-70
2023/12/06 06:07:47;;;;;;;80.78;47.10;;;0.90;99.90;;;;;;5052650;28;20035;-69
2023/12/06 06:10:13;;;;;;;77.85;45.22;;;0.90;99.90;;;;;;5051929;28;20033;-69
2023/12/06 06:12:39;;;;;;;80.88;43.78;;;0.90;99.90;;;;;;5049862;28;20029;-70
2023/12/06 06:15:05;;;;;;;80.75;44.92;;;0.90;99.90;;;;;;5040693;28;20443;-71
2023/12/06 06:17:31;;;;;;;77.47;45.58;;;0.90;99.90;;;;;;5039722;28;20079;-70
2023/12/06 06:19:56;;;;;;;75.80;43.63;;;0.90;99.90;;;;;;5051357;28;20371;-69
2023/12/06 06:22:22;;;;;;;75.35;43.50;;;1.00;99.90;;;;;;5051678;28;20067;-69
2023/12/06 06:24:47;;;;;;;74.43;42.60;;;0.90;99.90;;;;;;5052721;28;20033;-69
2023/12/06 06:27:13;;;;;;;77.00;43.47;;;0.90;99.90;;;;;;5051945;28;20549;-69
2023/12/06 06:29:39;;;;;;;74.30;43.08;;;0.90;99.90;;;;;;5046067;28;20040;-69
2023/12/06 06:32:06;;;;;;;73.78;43.13;;;0.90;99.90;;;;;;5047942;28;20036;-71
2023/12/06 06:34:32;;;;;;;78.03;43.22;;;0.90;99.90;;;;;;5072148;28;20036;-70
2023/12/06 06:36:57;;;;;;;74.82;44.40;;;0.90;99.90;;;;;;5054752;28;20029;-71
2023/12/06 06:39:23;;;;;;;74.63;43.13;;;0.90;99.90;;;;;;5047842;28;20109;-70
2023/12/06 06:41:51;;;;;;;76.88;44.00;;;0.90;99.90;;;;;;5042240;28;20029;-69
2023/12/06 06:44:16;;;;;;;75.88;44.83;;;0.90;99.90;;;;;;5051874;28;20021;-71
2023/12/06 06:46:42;;;;;;;74.20;43.22;;;0.90;99.90;;;;;;5048085;28;20025;-69
2023/12/06 06:49:08;;;;;;;70.93;41.53;;;0.90;99.90;;;;;;5051934;28;20397;-69
2023/12/06 06:51:37;;;;;;;67.38;41.38;;;0.90;99.90;;;;;;5052480;28;20029;-69
2023/12/06 06:54:04;;;;;;;69.18;39.28;;;1.00;99.90;;;;;;5051779;28;20040;-69
2023/12/06 06:56:30;;;;;;;68.97;40.45;;;0.90;99.90;;;;;;5049246;28;20051;-70
2023/12/06 06:58:55;;;;;;;64.13;39.40;;;0.90;99.90;;;;;;5052046;28;20418;-68
2023/12/06 07:01:21;;;;;;;70.07;39.70;;;0.90;99.90;;;;;;5051357;28;20056;-69
2023/12/06 07:03:47;;;;;;;68.93;39.42;;;0.90;99.90;;;;;;5051864;28;20060;-69
2023/12/06 07:06:13;;;;;;;65.20;39.28;;;1.00;99.90;;;;;;5051262;28;20057;-70
2023/12/06 07:08:39;;;;;;;67.47;40.80;;;1.00;99.90;;;;;;5045275;28;20055;-71
2023/12/06 07:11:06;;;;;;;72.50;42.58;;;0.90;99.90;;;;;;5041012;28;20028;-71
2023/12/06 07:13:32;;;;;;;67.97;41.28;;;0.90;99.90;;;;;;5051764;28;20065;-70
2023/12/06 07:15:58;;;;;;;67.93;39.67;;;0.90;99.90;;;;;;5051818;28;20110;-69
2023/12/06 07:18:25;;;;;;;71.97;39.80;;;0.90;99.90;;;;;;5047006;28;20033;-69
2023/12/06 07:20:51;;;;;;;72.22;42.95;;;0.90;99.90;;;;;;5042704;28;20044;-71
2023/12/06 07:23:17;;;;;;;73.75;40.10;;;0.90;99.90;;;;;;5051380;28;20033;-70
2023/12/06 07:25:43;;;;;;;69.05;38.28;;;0.90;99.90;;;;;;5053705;28;20025;-69
2023/12/06 07:28:09;;;;;;;69.13;39.80;;;1.00;99.90;;;;;;5055071;28;20025;-69
2023/12/06 07:30:34;;;;;;;69.25;39.42;;;1.00;99.90;;;;;;5055026;28;20033;-69
2023/12/06 07:33:00;;;;;;;69.97;40.42;;;1.00;99.90;;;;;;5054909;28;20029;-68
2023/12/06 07:35:26;;;;;;;74.07;40.80;;;1.00;99.90;;;;;;5054814;28;20039;-69
2023/12/06 07:37:51;;;;;;;66.38;40.28;;;1.00;99.90;;;;;;5044192;28;20076;-69
2023/12/06 07:40:17;;;;;;;72.85;40.33;;;1.00;99.90;;;;;;5035818;28;20030;-71
2023/12/06 07:42:43;;;;;;;79.13;41.70;;;1.00;99.90;;;;;;5054821;28;20036;-69
2023/12/06 07:45:11;;;;;;;71.30;41.65;;;1.00;99.90;;;;;;5053181;28;20102;-69
2023/12/06 07:47:39;;;;;;;72.85;42.70;;;1.00;99.90;;;;;;5048063;28;20039;-69
2023/12/06 07:50:06;;;;;;;70.35;41.20;;;1.00;99.90;;;;;;5054755;28;20457;-69
2023/12/06 07:52:33;;;;;;;73.32;41.28;;;1.10;99.90;;;;;;5054339;28;20069;-69
2023/12/06 07:54:59;;;;;;;77.30;42.97;;;1.10;99.90;;;;;;5054632;28;20061;-69
2023/12/06 07:57:28;;;;;;;71.63;42.45;;;1.10;99.90;;;;;;5047767;28;20509;-69
2023/12/06 07:59:56;;;;;;;76.38;42.53;;;1.10;99.90;;;;;;5034970;28;20030;-70
2023/12/06 08:02:22;;;;;;;74.10;42.97;;;1.10;99.90;;;;;;5051310;28;20048;-70
2023/12/06 08:04:48;;;;;;;77.60;44.25;;;1.10;99.90;;;;;;5054501;28;20025;-70
2023/12/06 08:07:13;;;;;;;80.75;44.15;;;1.10;99.90;;;;;;5050824;28;20409;-70
2023/12/06 08:09:40;;;;;;;80.03;43.63;;;1.10;99.90;;;;;;5041267;28;20029;-69
2023/12/06 08:12:07;;;;;;;80.30;45.38;;;1.10;99.90;;;;;;5049214;28;20377;-71
2023/12/06 08:14:34;;;;;;;80.82;45.00;;;1.20;99.90;;;;;;5053815;28;20029;-70
2023/12/06 08:16:59;;;;;;;80.72;44.85;;;1.20;99.90;;;;;;5067165;28;20016;-71
2023/12/06 08:19:26;;;;;;;79.47;44.47;;;1.20;99.90;;;;;;5054441;28;20028;-70
2023/12/06 08:21:51;;;;;;;77.18;43.78;;;1.20;99.90;;;;;;5047870;28;20037;-71
2023/12/06 08:24:17;;;;;;;84.03;44.13;;;1.20;99.90;;;;;;5033211;28;20489;-69
2023/12/06 08:26:43;;;;;;;79.18;44.63;;;1.20;99.90;;;;;;5043658;28;20490;-71
2023/12/06 08:29:09;;;;;;;79.88;44.60;;;1.20;99.90;;;;;;5043792;28;20462;-70
2023/12/06 08:31:36;;;;;;;80.10;44.40;;;1.20;99.90;;;;;;5042123;28;20121;-69
2023/12/06 08:34:02;;;;;;;75.70;42.15;;;1.30;99.90;;;;;;5048317;28;20382;-69
2023/12/06 08:36:28;;;;;;;75.32;44.15;;;1.30;99.90;;;;;;5048513;28;20025;-69
2023/12/06 08:38:54;;;;;;;77.25;41.42;;;1.30;99.90;;;;;;5036547;28;20453;-70
2023/12/06 08:41:20;;;;;;;77.57;42.95;;;1.30;99.90;;;;;;5039661;28;20024;-70
2023/12/06 08:43:46;;;;;;;77.03;44.45;;;1.30;99.90;;;;;;5053860;28;20100;-70
2023/12/06 08:46:11;;;;;;;76.93;43.28;;;1.30;99.90;;;;;;5053602;28;20032;-70
2023/12/06 08:48:37;;;;;;;75.60;43.70;;;1.30;99.90;;;;;;5053471;28;20025;-70
2023/12/06 08:51:03;;;;;;;82.00;46.05;;;1.40;99.90;;;;;;5051499;28;20036;-70
2023/12/06 08:53:29;;;;;;;83.28;44.38;;;1.40;99.90;;;;;;5033315;28;20112;-70
2023/12/06 08:55:56;;;;;;;83.28;44.30;;;1.40;99.90;;;;;;5043141;28;20109;-71
2023/12/06 08:58:22;;;;;;;86.50;42.85;;;1.40;99.90;;;;;;5044685;28;20025;-69
2023/12/06 09:00:48;;;;;;;80.38;42.22;;;1.50;99.90;;;;;;5042982;28;20041;-71
2023/12/06 09:03:14;;;;;;;86.70;43.55;;;1.40;99.90;;;;;;5038841;28;20037;-73
2023/12/06 09:05:39;;;;;;;79.82;44.28;;;1.50;99.90;;;;;;5033544;28;20036;-69
2023/12/06 09:08:06;;;;;;;78.93;43.58;;;1.50;99.90;;;;;;5052813;28;20037;-70
2023/12/06 09:10:31;;;;;;;83.60;44.92;;;1.50;99.90;;;;;;5045702;28;20386;-69
2023/12/06 09:12:57;;;;;;;75.80;43.95;;;1.50;99.90;;;;;;5051518;28;20021;-70
2023/12/06 09:15:22;;;;;;;77.53;44.63;;;1.50;99.90;;;;;;5053085;28;20025;-70
2023/12/06 09:17:48;;;;;;;83.13;45.47;;;1.50;99.90;;;;;;5066519;28;20490;-67
2023/12/06 09:20:15;;;;;;;81.38;44.65;;;1.60;99.90;;;;;;5051491;28;20036;-70
2023/12/06 09:22:41;;;;;;;88.78;46.85;;;1.60;99.90;;;;;;5046675;28;20076;-68
2023/12/06 09:25:07;;;;;;;88.60;45.80;;;1.60;99.90;;;;;;5052478;28;20049;-69
2023/12/06 09:27:32;;;;;;;84.18;46.28;;;1.60;99.90;;;;;;5053295;28;20107;-68
2023/12/06 09:29:58;;;;;;;82.30;45.10;;;1.70;99.90;;;;;;5053283;28;20103;-68
2023/12/06 09:32:24;;;;;;;83.60;45.80;;;1.70;99.90;;;;;;5051374;28;20048;-69
2023/12/06 09:34:50;;;;;;;76.75;42.97;;;1.70;99.90;;;;;;5052801;28;20530;-68
2023/12/06 09:37:16;;;;;;;80.20;44.67;;;1.70;99.90;;;;;;5050270;28;20035;-69
2023/12/06 09:39:42;;;;;;;83.13;44.60;;;1.70;99.90;;;;;;5048621;28;20025;-69
2023/12/06 09:42:10;;;;;;;72.32;41.28;;;1.80;99.90;;;;;;5052874;28;20029;-68
2023/12/06 09:44:41;;;;;;;76.90;42.67;;;1.80;99.90;;;;;;5062744;28;20071;-69
2023/12/06 09:47:06;;;;;;;68.28;40.03;;;1.80;99.90;;;;;;5072159;28;20060;-68
2023/12/06 09:49:32;;;;;;;71.82;40.83;;;1.80;99.90;;;;;;5055824;28;20500;-67
2023/12/06 09:52:08;;;;;;;69.78;41.63;;;1.80;99.90;;;;;;5052918;28;20041;-68
2023/12/06 09:54:39;;;;;;;74.57;41.58;;;1.90;99.90;;;;;;5052356;28;20454;-71
2023/12/06 09:57:04;;;;;;;69.00;40.33;;;1.90;99.90;;;;;;5052346;28;20036;-71
2023/12/06 09:59:30;;;;;;;79.47;43.75;;;1.90;99.90;;;;;;5046638;28;20075;-72
2023/12/06 10:01:55;;;;;;;69.60;39.85;;;1.90;99.90;;;;;;5050724;28;20053;-71
2023/12/06 10:04:21;;;;;;;68.03;38.33;;;2.00;99.90;;;;;;5051453;28;20080;-71
2023/12/06 10:06:49;;;;;;;64.85;39.42;;;2.00;99.90;;;;;;5052391;28;20035;-72
2023/12/06 10:09:16;;;;;;;72.63;40.05;;;2.00;99.90;;;;;;5052614;28;20033;-71
2023/12/06 10:11:41;;;;;;;78.88;39.13;;;2.00;99.90;;;;;;5052395;28;20108;-70
2023/12/06 10:14:19;;;;;;;67.85;40.58;;;2.00;99.90;;;;;;5052213;28;20160;-71
2023/12/06 10:16:48;;;;;;;72.00;40.25;;;2.00;99.90;;;;;;5050681;28;20037;-72
2023/12/06 10:19:22;;;;;;;72.05;38.78;;;2.10;99.90;;;;;;5045209;28;20021;-70
2023/12/06 10:21:49;;;;;;;71.82;39.90;;;2.10;99.90;;;;;;5051568;28;20060;-70
2023/12/06 10:24:14;;;;;;;70.95;40.53;;;2.10;99.90;;;;;;5052314;28;20041;-71
2023/12/06 10:26:40;;;;;;;74.65;39.42;;;2.10;99.90;;;;;;5051887;28;20029;-70
2023/12/06 10:29:06;;;;;;;68.03;39.50;;;2.20;99.90;;;;;;5052145;28;20370;-70
2023/12/06 10:31:42;;;;;;;68.18;38.95;;;2.10;99.90;;;;;;5038659;28;20469;-71
2023/12/06 10:34:08;;;;;;;67.32;38.85;;;2.10;99.90;;;;;;5052200;28;20021;-71
2023/12/06 10:36:35;;;;;;;70.05;39.63;;;2.10;99.90;;;;;;5051927;28;20029;-71
2023/12/06 10:39:04;;;;;;;67.28;39.28;;;2.10;99.90;;;;;;5044832;28;20099;-71
2023/12/06 10:41:32;;;;;;;64.25;38.45;;;2.10;99.90;;;;;;5051958;28;20533;-72
2023/12/06 10:44:01;;;;;;;63.92;38.00;;;2.20;99.90;;;;;;5052124;28;20469;-71
2023/12/06 10:46:27;;;;;;;72.00;40.75;;;2.20;99.90;;;;;;5051826;28;20462;-71
2023/12/06 10:48:54;;;;;;;68.20;39.67;;;2.20;99.90;;;;;;5047189;28;20029;-71
2023/12/06 10:51:20;;;;;;;68.25;39.72;;;2.20;99.90;;;;;;5040755;28;20033;-71
2023/12/06 10:53:47;;;;;;;71.00;40.30;;;2.20;99.90;;;;;;5034838;28;20037;-70
2023/12/06 10:56:15;;;;;;;71.95;41.67;;;2.20;99.90;;;;;;5048851;28;20111;-70
2023/12/06 10:58:41;;;;;;;68.18;39.72;;;2.30;99.90;;;;;;5051116;28;20625;-70
2023/12/06 11:01:09;;;;;;;75.10;42.85;;;2.30;99.90;;;;;;5053569;28;20056;-70
2023/12/06 11:03:36;;;;;;;69.85;41.75;;;2.30;99.90;;;;;;5045284;28;20083;-71
2023/12/06 11:06:34;;;;;;;72.22;42.90;;;2.40;99.90;;;;;;5043599;28;20123;-69
2023/12/06 11:09:27;;;;;;;80.40;45.45;;;2.40;99.90;;;;;;5043782;28;20389;-69
2023/12/06 11:12:38;;;;;;;77.88;41.85;;;2.40;99.90;;;;;;5052381;28;20430;-70
2023/12/06 11:15:18;;;;;;;72.10;43.35;;;2.40;99.90;;;;;;5006401;28;20038;-70
2023/12/06 11:17:47;;;;;;;75.80;45.25;;;2.40;99.90;;;;;;5045287;28;20052;-69
2023/12/06 11:20:14;;;;;;;76.57;43.22;;;2.40;99.90;;;;;;5051589;28;20381;-71
2023/12/06 11:22:40;;;;;;;76.57;44.00;;;2.40;99.90;;;;;;5053875;28;20033;-70
2023/12/06 11:25:07;;;;;;;72.30;42.42;;;2.50;99.90;;;;;;5053980;28;20029;-71
2023/12/06 11:27:33;;;;;;;77.88;44.22;;;2.50;99.90;;;;;;5051264;28;20477;-69
2023/12/06 11:30:00;;;;;;;80.25;45.17;;;2.50;99.90;;;;;;5043734;28;20029;-71
2023/12/06 11:32:40;;;;;;;79.68;45.05;;;2.50;99.90;;;;;;5045082;28;20064;-71
2023/12/06 11:35:07;;;;;;;74.50;42.17;;;2.50;99.90;;;;;;5034346;28;20457;-70
2023/12/06 11:37:33;;;;;;;74.32;43.53;;;2.60;99.90;;;;;;5034084;28;20071;-71
2023/12/06 11:40:18;;;;;;;74.80;42.13;;;2.60;99.90;;;;;;5034383;28;20021;-70
2023/12/06 11:43:13;;;;;;;78.88;43.60;;;2.60;99.90;;;;;;5034256;28;20529;-70
2023/12/06 11:45:39;;;;;;;72.93;43.90;;;2.60;99.90;;;;;;5033899;28;20087;-71
2023/12/06 11:48:05;;;;;;;81.80;45.85;;;2.70;99.90;;;;;;5054113;28;20025;-70
2023/12/06 11:50:45;;;;;;;74.85;44.70;;;2.70;99.90;;;;;;5047358;28;20428;-70
2023/12/06 11:53:12;;;;;;;76.18;43.65;;;2.70;99.90;;;;;;5046914;28;20022;-70
2023/12/06 11:55:40;;;;;;;80.03;44.38;;;2.70;99.90;;;;;;5044160;28;20044;-69
2023/12/06 11:58:12;;;;;;;76.53;43.30;;;2.70;99.90;;;;;;5053732;28;20032;-69
2023/12/06 12:00:51;;;;;;;88.20;45.33;;;2.80;99.90;;;;;;5047004;28;20533;-70
2023/12/06 12:03:17;;;;;;;77.50;46.55;;;2.80;99.90;;;;;;5045624;28;20401;-70
2023/12/06 12:05:44;;;;;;;75.38;45.83;;;2.80;99.90;;;;;;5052846;28;20095;-70
2023/12/06 12:08:14;;;;;;;81.55;46.00;;;2.90;99.90;;;;;;5054021;28;20074;-69
2023/12/06 12:10:40;;;;;;;89.68;47.38;;;2.90;99.90;;;;;;5052580;28;20036;-70
2023/12/06 12:13:16;;;;;;;84.78;48.45;;;3.00;99.90;;;;;;5053496;28;20082;-69
2023/12/06 12:15:50;;;;;;;88.93;50.25;;;3.00;99.90;;;;;;5053544;28;20434;-70
2023/12/06 12:18:16;;;;;;;83.07;47.47;;;3.00;99.90;;;;;;5051558;28;20055;-69
2023/12/06 12:20:42;;;;;;;83.00;47.30;;;3.00;99.90;;;;;;5048681;28;20033;-69
2023/12/06 12:23:07;;;;;;;80.07;45.80;;;3.10;99.90;;;;;;5045271;28;20052;-71
2023/12/06 12:25:33;;;;;;;80.57;46.25;;;3.10;99.90;;;;;;5045630;28;20025;-69
2023/12/06 12:27:59;;;;;;;84.25;48.17;;;3.20;99.90;;;;;;5046466;28;20041;-72
2023/12/06 12:30:24;;;;;;;86.00;47.85;;;3.20;99.90;;;;;;5044105;28;20497;-70
2023/12/06 12:32:52;;;;;;;79.95;46.03;;;3.30;99.90;;;;;;5045482;28;20033;-70